Time;durP1;ratioP1;P1;durP2;ratioP2;P2;SDS_P1;SDS_P2;PMS_P1;PMS_P2;Temp;Humidity;BMP_temperature;BMP_pressure;BME280_temperature;BME280_humidity;BME280_pressure;Samples;Min_cycle;Max_cycle;Signal;HPM_P1;HPM_P2
2022/02/03 00:01:06;;;;;;;;;;;;;;;9.84;100.00;99195.59;4651484;30;19939;-77
2022/02/03 00:06:12;;;;;;;;;;;;;;;9.65;100.00;99190.63;4666795;30;19939;-77
2022/02/03 00:22:22;;;;;;;;;;;;;;;10.08;100.00;99161.06;4599985;31;19960;-77
2022/02/03 00:25:23;;;;;;;;;;;;;;;9.84;100.00;99156.53;4613911;31;19933;-77
2022/02/03 00:27:51;;;;;;;;;;;;;;;9.91;100.00;99145.28;4599956;31;19933;-77
2022/02/03 00:30:20;;;;;;;;;;;;;;;9.82;100.00;99148.56;4599824;31;19939;-77
2022/02/03 00:33:38;;;;;;;;;;;;;;;9.89;100.00;99147.72;4613595;31;19950;-77
2022/02/03 00:48:16;;;;;;;;;;;;;;;9.73;100.00;99128.75;4613629;31;19987;-77
2022/02/03 00:49:45;;;;;;;;;;;;;;;9.99;100.00;99124.44;4651094;30;19939;-77
2022/02/03 00:52:12;;;;;;;;;;;;;;;10.03;100.00;99125.19;4650919;30;20325;-77
2022/02/03 00:54:39;;;;;;;;;;;;;;;10.11;100.00;99112.75;4666118;30;19936;-77
2022/02/03 00:57:10;;;;;;;;;;;;;;;9.98;100.00;99117.28;4652692;30;20041;-77
2022/02/03 00:59:39;;;;;;;;;;;;;;;9.88;100.00;99115.41;4666146;30;19932;-77
2022/02/03 01:02:08;;;;;;;;;;;;;;;9.82;100.00;99105.91;4667194;30;20483;-77
2022/02/03 01:04:37;;;;;;;;;;;;;;;9.73;100.00;99102.84;4668150;30;19931;-78
2022/02/03 01:07:10;;;;;;;;;;;;;;;9.64;100.00;99102.53;4668249;30;19942;-78
2022/02/03 01:09:42;;;;;;;;;;;;;;;9.74;100.00;99102.41;4654037;30;19931;-78
2022/02/03 01:12:22;;;;;;;;;;;;;;;9.73;100.00;99102.84;4668497;30;19966;-78
2022/02/03 01:15:14;;;;;;;;;;;;;;;9.82;100.00;99092.75;4671052;30;19942;-78
2022/02/03 01:17:54;;;;;;;;;;;;;;;9.74;100.00;99080.09;4686609;30;19932;-78
2022/02/03 01:53:29;;;;;;;;;;;;;;;9.79;100.00;99025.81;4686068;30;20382;-77
2022/02/03 01:56:10;;;;;;;;;;;;;;;9.74;100.00;99012.38;4670679;30;19931;-77
2022/02/03 01:58:47;;;;;;;;;;;;;;;9.80;100.00;99010.69;4670434;30;19998;-77
2022/02/03 02:01:22;;;;;;;;;;;;;;;9.77;100.00;99006.72;4686120;30;19936;-77
2022/02/03 02:03:54;;;;;;;;;;;;;;;9.61;100.00;99009.34;4670719;30;19936;-77
2022/02/03 02:06:40;;;;;;;;;;;;;;;9.42;100.00;99003.59;4670574;30;19938;-77
2022/02/03 02:09:29;;;;;;;;;;;;;;;9.46;100.00;98995.97;4656515;30;19955;-77
2022/02/03 02:12:04;;;;;;;;;;;;;;;9.59;100.00;98988.66;4670644;30;20014;-77
2022/02/03 02:39:57;;;;;;;;;;;;;;;9.50;100.00;98957.66;4685496;30;20301;-77
2022/02/03 02:42:34;;;;;;;;;;;;;;;9.18;100.00;98958.88;4685462;30;19932;-77
2022/02/03 02:45:06;;;;;;;;;;;;;;;9.26;100.00;98969.94;4685365;30;19939;-77
2022/02/03 02:47:58;;;;;;;;;;;;;;;9.14;100.00;98966.50;4685259;30;20282;-77
2022/02/03 02:50:40;;;;;;;;;;;;;;;9.03;100.00;98968.63;4655978;30;19938;-77
2022/02/03 02:53:38;;;;;;;;;;;;;;;9.12;100.00;98971.69;4669562;30;19931;-77
2022/02/03 02:56:22;;;;;;;;;;;;;;;9.19;100.00;98981.97;4684837;30;19932;-77
2022/02/03 02:59:16;;;;;;;;;;;;;;;9.32;100.00;98979.41;4671263;30;20265;-77
2022/02/03 03:29:46;;;;;;;;;;;;;;;9.18;100.00;98936.56;4650912;30;19932;-77
2022/02/03 03:32:37;;;;;;;;;;;;;;;9.02;100.00;98933.59;4621633;30;19932;-77
2022/02/03 03:35:17;;;;;;;;;;;;;;;8.88;100.00;98930.97;4635132;30;20520;-77
2022/02/03 03:37:48;;;;;;;;;;;;;;;8.76;100.00;98931.50;4650610;30;19932;-77
2022/02/03 03:40:17;;;;;;;;;;;;;;;8.85;100.00;98929.00;4635259;30;19939;-77
2022/02/03 03:42:51;;;;;;;;;;;;;;;8.82;100.00;98924.28;4635347;30;19932;-77
2022/02/03 03:45:19;;;;;;;;;;;;;;;9.00;100.00;98924.84;4650505;30;20374;-77
2022/02/03 03:47:47;;;;;;;;;;;;;;;8.97;100.00;98925.69;4650304;30;20445;-77
2022/02/03 03:50:16;;;;;;;;;;;;;;;8.89;100.00;98918.59;4650470;30;20409;-77
2022/02/03 03:52:48;;;;;;;;;;;;;;;8.89;100.00;98913.03;4635186;30;21014;-77
2022/02/03 03:58:13;;;;;;;;;;;;;;;8.87;100.00;98911.88;4657285;30;19939;-77
2022/02/03 04:56:22;;;;;;;;;;;;;;;9.13;100.00;98845.03;4630382;31;20457;-78
2022/02/03 05:04:15;;;;;;;;;;;;;;;8.97;100.00;98817.00;4613646;31;19937;-78
2022/02/03 05:12:53;;;;;;;;;;;;;;;8.68;100.00;98801.88;4613574;31;19940;-77
2022/02/03 05:44:49;;;;;;;;;;;;;;;9.08;100.00;98770.28;4580234;31;20453;-77
2022/02/03 05:52:56;;;;;;;;;;;;;;;8.82;100.00;98761.88;4596447;31;19940;-77
2022/02/03 06:08:50;;;;;;;;;;;;;;;8.96;100.00;98754.13;4669070;30;19938;-77
2022/02/03 06:22:22;;;;;;;;;;;;;;;8.65;100.00;98741.44;4653388;30;19939;-77
2022/02/03 06:27:50;;;;;;;;;;;;;;;8.76;100.00;98733.72;4654726;30;19938;-77
2022/02/03 06:30:18;;;;;;;;;;;;;;;8.80;100.00;98731.66;4654790;30;19932;-77
2022/02/03 06:32:45;;;;;;;;;;;;;;;8.76;100.00;98730.94;4669996;30;19938;-77
2022/02/03 06:35:13;;;;;;;;;;;;;;;8.61;100.00;98732.34;4685310;30;20427;-77
2022/02/03 06:37:40;;;;;;;;;;;;;;;8.68;100.00;98735.03;4685597;30;20281;-77
2022/02/03 06:40:09;;;;;;;;;;;;;;;8.45;100.00;98726.56;4685654;30;20512;-77
2022/02/03 06:42:37;;;;;;;;;;;;;;;8.41;100.00;98725.03;4670073;30;19935;-77
2022/02/03 06:45:18;;;;;;;;;;;;;;;8.47;100.00;98723.38;4669962;30;19962;-77
2022/02/03 06:48:00;;;;;;;;;;;;;;;8.56;100.00;98732.00;4684923;30;19938;-77
2022/02/03 06:50:34;;;;;;;;;;;;;;;8.54;100.00;98728.88;4670048;30;19931;-77
2022/02/03 06:53:15;;;;;;;;;;;;;;;8.46;100.00;98728.16;4670095;30;19938;-77
2022/02/03 06:55:52;;;;;;;;;;;;;;;8.34;100.00;98744.63;4655613;30;20026;-77
2022/02/03 06:58:24;;;;;;;;;;;;;;;8.28;100.00;98744.31;4655595;30;19938;-77
2022/02/03 07:01:01;;;;;;;;;;;;;;;8.24;100.00;98737.19;4642858;30;20464;-77
2022/02/03 07:03:32;;;;;;;;;;;;;;;8.48;100.00;98731.31;4652440;30;19932;-77
2022/02/03 07:05:59;;;;;;;;;;;;;;;8.49;100.00;98720.97;4667995;30;19993;-77
2022/02/03 07:08:30;;;;;;;;;;;;;;;8.50;100.00;98720.53;4652477;30;19936;-87
2022/02/03 07:10:59;;;;;;;;;;;;;;;8.55;100.00;98720.09;4667094;30;19949;-76
2022/02/03 07:13:26;;;;;;;;;;;;;;;8.64;100.00;98725.13;4667323;30;19971;-77
2022/02/03 07:15:53;;;;;;;;;;;;;;;8.68;100.00;98726.66;4652165;30;19932;-77
2022/02/03 07:18:20;;;;;;;;;;;;;;;8.43;100.00;98723.44;4667493;30;19931;-78
2022/02/03 07:20:48;;;;;;;;;;;;;;;8.56;100.00;98718.88;4652187;30;19960;-78
2022/02/03 07:23:15;;;;;;;;;;;;;;;8.47;100.00;98709.44;4667717;30;19936;-76
2022/02/03 07:25:43;;;;;;;;;;;;;;;8.63;100.00;98715.97;4667621;30;19939;-76
2022/02/03 07:28:11;;;;;;;;;;;;;;;8.50;100.00;98703.84;4652367;30;19932;-76
2022/02/03 07:30:39;;;;;;;;;;;;;;;8.49;100.00;98716.19;4667501;30;19935;-76
2022/02/03 07:33:07;;;;;;;;;;;;;;;8.40;100.00;98713.13;4667064;30;19938;-76
2022/02/03 07:35:35;;;;;;;;;;;;;;;8.39;100.00;98708.75;4654289;30;19931;-76
2022/02/03 07:38:05;;;;;;;;;;;;;;;8.26;100.00;98707.72;4644145;30;20414;-76
2022/02/03 07:40:33;;;;;;;;;;;;;;;8.26;100.00;98704.94;4653166;30;20034;-76
2022/02/03 07:43:03;;;;;;;;;;;;;;;8.38;100.00;98709.97;4651978;30;19932;-76
2022/02/03 07:45:31;;;;;;;;;;;;;;;8.41;100.00;98703.56;4673939;30;19931;-77
2022/02/03 07:47:58;;;;;;;;;;;;;;;8.35;100.00;98704.44;4666964;30;20080;-76
2022/02/03 07:50:25;;;;;;;;;;;;;;;8.43;100.00;98706.72;4667092;30;19932;-76
2022/02/03 07:52:53;;;;;;;;;;;;;;;8.54;100.00;98709.38;4652292;30;19942;-76
2022/02/03 07:55:21;;;;;;;;;;;;;;;8.59;100.00;98709.69;4666987;30;19932;-76
2022/02/03 07:57:52;;;;;;;;;;;;;;;8.59;100.00;98708.88;4651736;30;19932;-76
2022/02/03 08:00:21;;;;;;;;;;;;;;;8.62;100.00;98703.28;4651510;30;19931;-76
2022/02/03 08:03:12;;;;;;;;;;;;;;;8.48;100.00;98697.88;4651666;30;20025;-76
2022/02/03 08:05:41;;;;;;;;;;;;;;;8.43;100.00;98709.50;4666890;30;19983;-76
2022/02/03 08:08:26;;;;;;;;;;;;;;;8.49;100.00;98698.69;4666785;30;19932;-76
2022/02/03 08:10:58;;;;;;;;;;;;;;;8.53;100.00;98700.22;4666842;30;19943;-76
2022/02/03 08:13:32;;;;;;;;;;;;;;;8.42;100.00;98688.44;4666658;30;19932;-77
2022/02/03 08:18:34;;;;;;;;;;;;;;;8.53;100.00;98700.22;4673216;30;20162;-77
2022/02/03 08:21:05;;;;;;;;;;;;;;;8.48;100.00;98695.09;4683655;30;19931;-77
2022/02/03 08:26:25;;;;;;;;;;;;;;;8.36;100.00;98698.44;4683731;30;19932;-77
2022/02/03 08:31:51;;;;;;;;;;;;;;;8.49;100.00;98682.78;4682559;30;20432;-76
2022/02/03 08:34:32;;;;;;;;;;;;;;;8.33;100.00;98671.44;4651305;30;19932;-75
2022/02/03 08:37:01;;;;;;;;;;;;;;;8.52;100.00;98658.88;4666626;30;20323;-76
2022/02/03 08:39:33;;;;;;;;;;;;;;;8.46;100.00;98658.56;4666483;30;19983;-76
2022/02/03 08:42:00;;;;;;;;;;;;;;;8.46;100.00;98649.41;4678659;30;19939;-80
2022/02/03 08:44:28;;;;;;;;;;;;;;;8.48;100.00;98649.78;4678158;30;19932;-78
2022/02/03 08:46:55;;;;;;;;;;;;;;;8.48;100.00;98641.44;4679577;30;19932;-78
2022/02/03 08:49:23;;;;;;;;;;;;;;;8.54;100.00;98646.09;4664695;30;19939;-76
2022/02/03 08:51:51;;;;;;;;;;;;;;;8.21;100.00;98627.44;4665282;30;19931;-78
2022/02/03 08:54:19;;;;;;;;;;;;;;;8.23;100.00;98621.50;4679957;30;19932;-77
2022/02/03 08:56:56;;;;;;;;;;;;;;;8.12;100.00;98616.03;4662112;30;20270;-77
2022/02/03 09:59:07;;;;;;;;;;;;;;;8.80;100.00;98620.25;4640633;30;19932;-76
2022/02/03 10:01:42;;;;;;;;;;;;;;;8.69;100.00;98625.19;4637796;30;19932;-83
2022/02/03 10:04:19;;;;;;;;;;;;;;;8.83;100.00;98619.38;4667952;30;19936;-77
2022/02/03 10:06:58;;;;;;;;;;;;;;;8.79;100.00;98613.09;4652743;30;20331;-77
2022/02/03 10:09:38;;;;;;;;;;;;;;;8.76;100.00;98613.16;4668909;30;20087;-78
2022/02/03 10:12:05;;;;;;;;;;;;;;;8.83;100.00;98611.03;4668674;30;19932;-77
2022/02/03 10:14:37;;;;;;;;;;;;;;;8.90;100.00;98613.72;4680067;30;19997;-78
2022/02/03 10:17:05;;;;;;;;;;;;;;;9.00;100.00;98607.19;4669612;30;19939;-76
2022/02/03 10:19:37;;;;;;;;;;;;;;;9.05;100.00;98603.91;4685919;30;19932;-76
2022/02/03 10:22:13;;;;;;;;;;;;;;;9.01;100.00;98605.19;4665851;30;19931;-79
2022/02/03 10:24:42;;;;;;;;;;;;;;;9.07;100.00;98607.03;4666808;30;19938;-78
2022/02/03 10:27:24;;;;;;;;;;;;;;;9.11;100.00;98607.00;4666600;30;19932;-78
2022/02/03 10:30:20;;;;;;;;;;;;;;;9.25;100.00;98601.16;4666647;30;19931;-76
2022/02/03 10:32:48;;;;;;;;;;;;;;;9.32;100.00;98606.59;4682848;30;19943;-79
2022/02/03 10:35:38;;;;;;;;;;;;;;;9.30;100.00;98606.25;4653399;30;19932;-80
2022/02/03 10:55:21;;;;;;;;;;;;;;;9.41;100.00;98586.53;4628175;31;19963;-78
2022/02/03 11:11:34;;;;;;;;;;;;;;;9.37;100.00;98574.66;4631684;30;19936;-78
2022/02/03 11:14:03;;;;;;;;;;;;;;;9.31;100.00;98577.16;4631006;30;20019;-76
2022/02/03 11:16:36;;;;;;;;;;;;;;;9.33;100.00;98579.53;4642353;30;19939;-76
2022/02/03 11:19:06;;;;;;;;;;;;;;;9.27;100.00;98572.88;4670847;30;19955;-76
2022/02/03 11:21:34;;;;;;;;;;;;;;;9.42;100.00;98586.09;4680804;30;19938;-75
2022/02/03 11:24:10;;;;;;;;;;;;;;;9.46;100.00;98577.66;4680674;30;19939;-76
2022/02/03 11:26:48;;;;;;;;;;;;;;;9.37;100.00;98572.66;4666115;30;20365;-77
2022/02/03 11:40:22;;;;;;;;;;;;;;;9.68;100.00;98550.94;4665045;30;20444;-76
2022/02/03 12:01:37;;;;;;;;;;;;;;;10.28;100.00;98516.94;4662540;30;20527;-82
2022/02/03 12:20:30;;;;;;;;;;;;;;;10.64;100.00;98492.53;4647653;30;19942;-80
2022/02/03 12:23:22;;;;;;;;;;;;;;;10.58;100.00;98485.88;4647206;30;20026;-80
2022/02/03 12:26:02;;;;;;;;;;;;;;;10.35;100.00;98483.25;4661057;30;19973;-80
2022/02/03 12:39:29;;;;;;;;;;;;;;;10.43;100.00;98471.50;4617453;30;20030;-89
2022/02/03 12:42:05;;;;;;;;;;;;;;;10.62;100.00;98478.19;4662448;30;19932;-91
2022/02/03 12:44:38;;;;;;;;;;;;;;;10.79;100.00;98458.19;4635665;30;19932;-85
2022/02/03 12:47:06;;;;;;;;;;;;;;;10.78;100.00;98455.84;4663912;30;20313;-85
2022/02/03 12:49:37;;;;;;;;;;;;;;;10.64;100.00;98445.81;4663887;30;19994;-88
2022/02/03 12:52:24;;;;;;;;;;;;;;;10.96;100.00;98450.56;4648787;30;19959;-87
2022/02/03 12:54:52;;;;;;;;;;;;;;;11.22;100.00;98437.47;4663817;30;19967;-83
2022/02/03 12:57:49;;;;;;;;;;;;;;;11.13;100.00;98437.31;4663632;30;19932;-79
2022/02/03 13:00:31;;;;;;;;;;;;;;;11.60;100.00;98425.13;4626761;30;19932;-81
2022/02/03 13:03:18;;;;;;;;;;;;;;;11.51;100.00;98425.00;4650519;30;19939;-80
2022/02/03 13:05:53;;;;;;;;;;;;;;;11.79;100.00;98423.38;4664733;30;19982;-81
2022/02/03 13:08:30;;;;;;;;;;;;;;;11.76;100.00;98421.47;4667089;30;19974;-81
2022/02/03 13:11:14;;;;;;;;;;;;;;;11.47;100.00;98418.72;4655165;30;19986;-80
2022/02/03 13:14:36;;;;;;;;;;;;;;;11.57;100.00;98412.00;4669118;30;19938;-81
2022/02/03 13:16:31;;;;;;;;;;;;;;;11.73;100.00;98409.16;4676513;30;20002;-82
2022/02/03 13:19:29;;;;;;;;;;;;;;;11.73;100.00;98409.16;4669183;30;19938;-82
2022/02/03 13:22:14;;;;;;;;;;;;;;;11.58;100.00;98402.41;4668934;30;19931;-82
2022/02/03 13:25:06;;;;;;;;;;;;;;;11.71;100.00;98403.22;4655270;30;20034;-82
2022/02/03 13:30:33;;;;;;;;;;;;;;;11.38;100.00;98393.41;4683854;30;19938;-81
2022/02/03 13:33:03;;;;;;;;;;;;;;;11.13;100.00;98393.38;4652461;30;19939;-83
2022/02/03 13:38:57;;;;;;;;;;;;;;;11.28;100.00;98377.75;4668289;30;19931;-80
2022/02/03 13:41:27;;;;;;;;;;;;;;;11.25;100.00;98386.22;4660218;30;20030;-80
2022/02/03 13:43:55;;;;;;;;;;;;;;;11.43;100.00;98378.91;4637659;30;19942;-80
2022/02/03 13:46:27;;;;;;;;;;;;;;;11.34;100.00;98364.78;4675415;30;19935;-80
2022/02/03 13:48:54;;;;;;;;;;;;;;;11.29;100.00;98356.94;4682618;30;19931;-80
2022/02/03 13:51:29;;;;;;;;;;;;;;;11.36;100.00;98359.50;4678355;30;20074;-80
2022/02/03 14:16:20;;;;;;;;;;;;;;;11.72;100.00;98320.81;4673128;30;19932;-81
2022/02/03 14:21:58;;;;;;;;;;;;;;;11.87;100.00;98321.97;4663096;30;19943;-79
2022/02/03 14:27:24;;;;;;;;;;;;;;;11.75;100.00;98316.38;4655364;30;20416;-86
2022/02/03 14:30:01;;;;;;;;;;;;;;;11.70;100.00;98309.31;4650170;30;19932;-81
2022/02/03 14:32:37;;;;;;;;;;;;;;;11.91;100.00;98297.44;4635728;30;19939;-90
2022/02/03 14:35:10;;;;;;;;;;;;;;;11.73;100.00;98288.84;4618554;30;19932;-87
2022/02/03 14:38:00;;;;;;;;;;;;;;;11.70;100.00;98289.72;4618873;30;19932;-81
2022/02/03 14:42:58;;;;;;;;;;;;;;;11.80;100.00;98288.59;4634579;30;20030;-81
2022/02/03 14:45:25;;;;;;;;;;;;;;;11.62;100.00;98281.97;4648785;30;20042;-81
2022/02/03 14:47:52;;;;;;;;;;;;;;;11.69;100.00;98285.34;4618306;30;19932;-81
2022/02/03 14:50:20;;;;;;;;;;;;;;;11.50;100.00;98271.56;4632276;30;19939;-81
2022/02/03 14:52:58;;;;;;;;;;;;;;;11.13;100.00;98267.56;4646311;30;20038;-81
2022/02/03 15:00:45;;;;;;;;;;;;;;;10.97;100.00;98248.06;4665233;30;19931;-81
2022/02/03 15:03:13;;;;;;;;;;;;;;;11.01;100.00;98240.38;4658398;30;19931;-81
2022/02/03 15:05:41;;;;;;;;;;;;;;;11.00;100.00;98247.19;4650211;30;19932;-80
2022/02/03 15:08:22;;;;;;;;;;;;;;;11.19;100.00;98245.41;4649820;30;19938;-81
2022/02/03 15:11:04;;;;;;;;;;;;;;;11.43;100.00;98239.03;4665500;30;19940;-84
2022/02/03 15:16:02;;;;;;;;;;;;;;;11.49;100.00;98248.44;4655188;30;19931;-82
2022/02/03 15:18:30;;;;;;;;;;;;;;;11.38;100.00;98236.78;4669728;30;20312;-82
2022/02/03 15:20:57;;;;;;;;;;;;;;;11.04;100.00;98233.91;4655741;30;20511;-82
2022/02/03 15:23:26;;;;;;;;;;;;;;;10.99;100.00;98234.44;4685355;30;20000;-81
2022/02/03 15:25:53;;;;;;;;;;;;;;;11.20;100.00;98219.81;4669382;30;20021;-82
2022/02/03 15:28:21;;;;;;;;;;;;;;;10.98;100.00;98221.69;4667044;30;19932;-83
2022/02/03 15:30:48;;;;;;;;;;;;;;;11.09;100.00;98233.31;4652168;30;19931;-82
2022/02/03 15:33:22;;;;;;;;;;;;;;;11.05;100.00;98227.06;4639016;30;20014;-82
2022/02/03 15:35:52;;;;;;;;;;;;;;;11.25;100.00;98226.84;4660452;30;19932;-82
2022/02/03 15:38:21;;;;;;;;;;;;;;;11.22;100.00;98216.56;4669418;30;19938;-82
2022/02/03 15:40:50;;;;;;;;;;;;;;;10.95;100.00;98212.19;4685101;30;20365;-82
2022/02/03 15:43:26;;;;;;;;;;;;;;;10.89;100.00;98210.38;4684032;30;20483;-82
2022/02/03 15:45:58;;;;;;;;;;;;;;;10.93;100.00;98199.91;4638611;30;19931;-82
2022/02/03 16:19:08;;;;;;;;;;;;;;;10.61;100.00;98233.59;4631268;31;19939;-81
2022/02/03 16:21:42;;;;;;;;;;;;;;;10.59;100.00;98236.03;4631440;31;19933;-81
2022/02/03 16:24:33;;;;;;;;;;;;;;;10.50;100.00;98249.88;4617249;31;20124;-81
2022/02/03 16:54:16;;;;;;;;;;;;;;;10.25;100.00;98216.28;4637696;30;19939;-82
2022/02/03 16:56:45;;;;;;;;;;;;;;;10.19;100.00;98229.22;4651745;30;20382;-83
2022/02/03 16:59:12;;;;;;;;;;;;;;;10.33;100.00;98212.09;4637644;30;19936;-83
2022/02/03 17:01:39;;;;;;;;;;;;;;;10.56;100.00;98214.59;4666911;30;20385;-84
2022/02/03 17:04:12;;;;;;;;;;;;;;;10.24;100.00;98209.13;4651023;30;19943;-83
2022/02/03 17:08:27;;;;;;;;;;;;;;;10.08;100.00;98211.97;4687245;30;19986;-83
2022/02/03 17:10:58;;;;;;;;;;;;;;;10.05;100.00;98210.03;4640698;30;20293;-83
2022/02/03 17:13:32;;;;;;;;;;;;;;;9.96;100.00;98201.50;4667683;30;19963;-83
2022/02/03 17:16:28;;;;;;;;;;;;;;;10.01;100.00;98214.94;4665182;30;20013;-83
2022/02/03 17:19:25;;;;;;;;;;;;;;;9.95;100.00;98205.53;4643350;30;20058;-83
2022/02/03 17:21:52;;;;;;;;;;;;;;;10.07;100.00;98207.63;4668101;30;20373;-83
2022/02/03 17:24:19;;;;;;;;;;;;;;;10.18;100.00;98210.88;4683469;30;20026;-83
2022/02/03 17:29:27;;;;;;;;;;;;;;;10.22;100.00;98200.44;4673863;30;19932;-82
2022/02/03 18:31:04;;;;;;;;;;;;;;;10.20;100.00;98197.28;4653207;30;19938;-83
2022/02/03 18:33:23;;;;;;;;;;;;;;;10.26;100.00;98185.16;4667168;30;19932;-91
2022/02/03 18:35:56;;;;;;;;;;;;;;;10.45;100.00;98177.81;4681606;30;20021;-85
2022/02/03 18:54:34;;;;;;;;;;;;;;;10.29;100.00;98164.72;4672765;30;20046;-85
2022/02/03 19:16:09;;;;;;;;;;;;;;;10.34;100.00;98113.13;4669024;30;19936;-82
2022/02/03 19:24:42;;;;;;;;;;;;;;;10.18;100.00;98093.66;4669704;30;19939;-82
2022/02/03 20:10:54;;;;;;;;;;;;;;;10.38;100.00;98035.59;4630420;30;19932;-84
2022/02/03 20:13:21;;;;;;;;;;;;;;;10.45;100.00;98052.91;4641554;30;19939;-83
2022/02/03 20:15:49;;;;;;;;;;;;;;;10.40;100.00;98028.38;4616136;31;20032;-81
2022/02/03 20:18:18;;;;;;;;;;;;;;;10.48;100.00;98051.25;4627162;31;19937;-82
2022/02/03 20:20:47;;;;;;;;;;;;;;;10.46;100.00;98031.38;4613806;31;19932;-83
2022/02/03 20:23:17;;;;;;;;;;;;;;;10.36;100.00;98033.25;4628735;31;19933;-83
2022/02/03 20:25:50;;;;;;;;;;;;;;;10.43;100.00;98032.28;4628961;31;19932;-83
2022/02/03 20:28:18;;;;;;;;;;;;;;;10.42;100.00;98025.13;4646292;30;19938;-81
2022/02/03 20:30:45;;;;;;;;;;;;;;;10.35;100.00;98026.13;4634792;30;19931;-81
2022/02/03 20:33:12;;;;;;;;;;;;;;;10.33;100.00;98009.03;4630565;30;20412;-82
2022/02/03 20:35:40;;;;;;;;;;;;;;;10.33;100.00;98020.19;4630834;30;19939;-83
2022/02/03 20:38:08;;;;;;;;;;;;;;;10.44;100.00;98003.09;4652050;30;19991;-90
2022/02/03 20:40:35;;;;;;;;;;;;;;;10.47;100.00;98005.00;4635072;30;20542;-78
2022/02/03 20:43:04;;;;;;;;;;;;;;;10.37;100.00;98003.34;4648727;30;20018;-84
2022/02/03 20:45:32;;;;;;;;;;;;;;;10.34;100.00;97998.66;4648048;30;20356;-80
2022/02/03 20:47:59;;;;;;;;;;;;;;;10.30;100.00;97986.81;4647867;30;20409;-84
2022/02/03 20:50:41;;;;;;;;;;;;;;;10.31;100.00;97991.16;4664196;30;19935;-91
2022/02/03 20:53:13;;;;;;;;;;;;;;;10.27;100.00;97985.69;4608601;30;20377;-83
2022/02/03 20:56:05;;;;;;;;;;;;;;;10.28;100.00;97992.06;4634582;30;20019;-86
2022/02/03 20:58:33;;;;;;;;;;;;;;;10.28;100.00;97978.09;4663854;30;19932;-85
2022/02/03 21:01:08;;;;;;;;;;;;;;;10.26;100.00;97974.97;4650741;30;19931;-86
2022/02/03 21:03:40;;;;;;;;;;;;;;;10.14;100.00;97972.97;4666203;30;20386;-86
2022/02/03 21:06:09;;;;;;;;;;;;;;;10.23;100.00;97970.28;4623467;30;19932;-86
2022/02/03 21:08:39;;;;;;;;;;;;;;;10.28;100.00;97964.94;4651554;30;19939;-86
2022/02/03 21:11:06;;;;;;;;;;;;;;;10.25;100.00;97962.25;4619839;30;20408;-86
2022/02/03 21:13:37;;;;;;;;;;;;;;;10.27;100.00;97957.78;4624373;30;19990;-86
2022/02/03 21:16:06;;;;;;;;;;;;;;;10.26;100.00;97941.47;4651050;30;19932;-87
2022/02/03 21:18:40;;;;;;;;;;;;;;;10.24;100.00;97932.75;4650809;30;19935;-86
2022/02/03 21:21:08;;;;;;;;;;;;;;;10.30;100.00;97939.38;4665882;30;19932;-85
2022/02/03 21:23:39;;;;;;;;;;;;;;;10.07;100.00;97922.97;4665637;30;19938;-85
2022/02/03 21:26:16;;;;;;;;;;;;;;;10.10;100.00;97930.44;4665089;30;19935;-86
2022/02/03 21:28:47;;;;;;;;;;;;;;;10.01;100.00;97914.31;4664736;30;19931;-86
2022/02/03 21:31:15;;;;;;;;;;;;;;;10.13;100.00;97913.56;4684207;30;19939;-85
2022/02/03 21:34:09;;;;;;;;;;;;;;;;;;;;;
2022/02/03 21:36:39;;;;;;;;;;;;;;;9.93;100.00;97912.22;4668840;30;20451;-87
2022/02/03 21:39:06;;;;;;;;;;;;;;;9.97;100.00;97910.09;4668902;30;20372;-86
2022/02/03 21:41:34;;;;;;;;;;;;;;;10.00;100.00;97914.78;4668869;30;20285;-86
2022/02/03 21:44:01;;;;;;;;;;;;;;;10.03;100.00;97908.28;4683779;30;19978;-86
2022/02/03 21:46:28;;;;;;;;;;;;;;;9.93;100.00;97915.00;4668980;30;19986;-86
2022/02/03 21:48:55;;;;;;;;;;;;;;;9.92;100.00;97905.09;4654342;30;19938;-86
2022/02/03 21:51:26;;;;;;;;;;;;;;;9.94;100.00;97913.75;4668269;30;19938;-86
2022/02/03 21:53:53;;;;;;;;;;;;;;;10.06;100.00;97901.81;4684025;30;19931;-86
2022/02/03 21:56:21;;;;;;;;;;;;;;;9.99;100.00;97890.91;4684191;30;19966;-86
2022/02/03 21:58:49;;;;;;;;;;;;;;;9.91;100.00;97889.53;4654370;30;19935;-85
2022/02/03 22:01:20;;;;;;;;;;;;;;;9.98;100.00;97889.34;4668170;30;19932;-86
2022/02/03 22:03:47;;;;;;;;;;;;;;;9.92;100.00;97907.88;4654880;30;20030;-86
2022/02/03 22:06:14;;;;;;;;;;;;;;;10.02;100.00;97895.56;4683354;30;19938;-86
2022/02/03 22:08:42;;;;;;;;;;;;;;;9.93;100.00;97890.69;4683423;30;20709;-86
2022/02/03 22:11:09;;;;;;;;;;;;;;;9.98;100.00;97889.34;4683895;30;19931;-86
2022/02/03 22:13:39;;;;;;;;;;;;;;;9.90;100.00;97890.78;4667857;30;19931;-86
2022/02/03 22:16:15;;;;;;;;;;;;;;;9.93;100.00;97887.09;4654201;30;19942;-86
2022/02/03 22:18:42;;;;;;;;;;;;;;;9.80;100.00;97880.75;4639967;30;19938;-85
2022/02/03 22:21:19;;;;;;;;;;;;;;;9.90;100.00;97882.41;4654375;30;20014;-86
2022/02/03 22:48:25;;;;;;;;;;;;;;;10.64;100.00;97863.97;4654328;30;20018;-85
2022/02/03 22:50:53;;;;;;;;;;;;;;;10.50;100.00;97864.47;4639103;30;19939;-85
2022/02/03 22:53:20;;;;;;;;;;;;;;;10.61;100.00;97860.09;4639373;30;19936;-85
2022/02/03 22:55:47;;;;;;;;;;;;;;;10.18;100.00;97842.44;4639080;30;19932;-85
2022/02/03 23:01:00;;;;;;;;;;;;;;;10.02;100.00;97850.94;4636447;30;20358;-80
2022/02/03 23:03:28;;;;;;;;;;;;;;;10.07;100.00;97845.59;4668584;30;19932;-80
2022/02/03 23:05:55;;;;;;;;;;;;;;;10.26;100.00;97854.94;4664678;30;20373;-80
2022/02/03 23:08:31;;;;;;;;;;;;;;;10.51;100.00;97843.72;4670337;30;19932;-81
2022/02/03 23:16:38;;;;;;;;;;;;;;;10.41;100.00;97828.09;4669788;30;20384;-83
2022/02/03 23:19:29;;;;;;;;;;;;;;;10.33;100.00;97821.97;4669744;30;19931;-83
2022/02/03 23:22:12;;;;;;;;;;;;;;;10.40;100.00;97826.53;4685397;30;19932;-82
2022/02/03 23:24:41;;;;;;;;;;;;;;;10.69;100.00;97815.94;4670119;30;19939;-81
2022/02/03 23:29:58;;;;;;;;;;;;;;;10.53;100.00;97790.97;4648939;30;19932;-81
2022/02/03 23:32:26;;;;;;;;;;;;;;;10.58;100.00;97798.75;4635242;30;19939;-81
